Biscoe, Arkansas
Current Conditions -  °F | °C
As of 6:55 PM on Saturday 25 Oct 2014 (Local Time) from KSGT Reporting Station
Clear Clear  
Wind Chill: 72°   Ceiling: Unl
Heat Index: 72°   Visibility: 10mi
Dew Point: 63°   Wind: 8mph
Humidity: 73%   Direction: 210°SSW
Pressure: 30.04"   Gusts: NA
Location:  34.82°N, 91.41°W
Report Text: KSGT 252355Z AUTO 21007KT 10SM CLR 22/17 A3004 RMK AO1 10300 20220 403000130 54000
Loading
Personal Weather Stations






























Interactive Weather Map
Tropical Storm Tracking
New forecast layout! Learn more

10-Day Weather Forecast

Advertisements
Track Severe Weather on mobile